Harrisburg, AR (72432)

7:26 AM CDT on October 31, 2014 (GMT -0500)
Boward and Wofford | Change Station
CLOSE
Current Station
Personal Weather Station
Location: Waldenburg, AR
Elevation: 243 ft
Nearby Weather Stations
Active Advisory: Freeze Warning, Freeze Watch

Elev 243 ft 35.57 °N, 90.90 °W | Updated 8 minutes ago

Clear
Clear
49.7 °F
Feels Like 45 °F
N
14.0
Wind Variable Wind from WNW
Gusts 15.0 mph

Today
High -- | Low -- °F
--% Chance of Precip.
Yesterday
High -- | Low -- °F
Precip. -- in
7:23 AM 6:08 PM
First Quarter, 55% visible
Pressure 30.08 in
Visibility 10.0 miles
Clouds Clear
Windchill 45 °F
Dew Point 47 °F
Humidity 89%
Rainfall 0.00 in
Snow Depth Not available.
UV 0 out of 12
Pollen 1.00 out of 12
Air Quality Not available.
Flu Activity Not available.
METAR KJBR 311153Z AUTO 35006KT 10SM CLR 09/07 A3008 RMK AO2 SLP184 T00940072 10117 20089 53024

More Conditions Fewer Conditions

Pressure 30.08 in
Visibility 10.0 miles
Clouds Clear
Windchill 45 °F
Dew Point 47 °F
Humidity 89%
Rainfall 0.00 in
Snow Depth Not available.
UV 0 out of 12
Pollen 1.00 out of 12
Air Quality Not available.
Flu Activity Not available.
METAR KJBR 311153Z AUTO 35006KT 10SM CLR 09/07 A3008 RMK AO2 SLP184 T00940072 10117 20089 53024

More Conditions Fewer Conditions

10-Day Weather Forecast

Almanac

Astronomy

Oct. 31, 2014 Rise Set
Actual Time
Civil Twilight
Nautical Twilight
Astronomical Twilight
Moon
Length of Visible Light
Length of Day
Tomorrow will be .
, % of the Moon is Illuminated

Today's Extremes

State Highs State Lows

Community

WunderPhotos

Upload Photos

1,766,592 photos uploaded!

WunderBlogs® & News

Nearby

Air Quality

  Air Quality AQ Index Pollutant
Not available.

Snow Depth

Station Depth Elevation

Earthquake Activity

City Distance Mag. Time & Date
Minimum magnitude displayed is 2.5.

Coastal Water Temperatures

Place Temperature

Nearby Weather Stations